createdAt,value
2023-05-09T00:00:32.635Z,1330.00
2023-05-09T00:01:32.705Z,1313.00
2023-05-09T00:02:32.833Z,1326.00
2023-05-09T00:03:32.831Z,1328.00
2023-05-09T00:04:32.920Z,1338.00
2023-05-09T00:05:32.902Z,1323.00
2023-05-09T00:06:32.877Z,1333.00
2023-05-09T00:07:32.951Z,1331.00
2023-05-09T00:08:32.961Z,1322.00
2023-05-09T00:09:33.018Z,1319.00
2023-05-09T00:10:32.993Z,1328.00
2023-05-09T00:11:33.083Z,1311.00
2023-05-09T00:12:33.125Z,1322.00
2023-05-09T00:13:33.132Z,1320.00
2023-05-09T00:14:33.207Z,1322.00
2023-05-09T00:15:33.236Z,1315.00
2023-05-09T00:16:33.339Z,1315.00
2023-05-09T00:17:33.375Z,1325.00
2023-05-09T00:18:33.304Z,1320.00
2023-05-09T00:19:33.387Z,1313.00
2023-05-09T00:20:33.383Z,1313.00
2023-05-09T00:21:33.533Z,1309.00
2023-05-09T00:22:33.467Z,1316.00
2023-05-09T00:23:33.503Z,1319.00
2023-05-09T00:24:33.564Z,1314.00
2023-05-09T00:25:33.598Z,1317.00
2023-05-09T00:26:33.621Z,1310.00
2023-05-09T00:27:33.680Z,1318.00
2023-05-09T00:28:33.685Z,1308.00
2023-05-09T00:29:33.775Z,1314.00
2023-05-09T00:30:33.813Z,1312.00
2023-05-09T00:31:33.844Z,1320.00
2023-05-09T00:32:33.896Z,1306.00
2023-05-09T00:33:33.954Z,1319.00
2023-05-09T00:34:33.952Z,1306.00
2023-05-09T00:35:33.990Z,1311.00
2023-05-09T00:36:34.039Z,1315.00
2023-05-09T00:37:34.175Z,1305.00
2023-05-09T00:38:34.133Z,1309.00
2023-05-09T00:39:34.208Z,1318.00
2023-05-09T00:40:34.236Z,1309.00
2023-05-09T00:41:34.241Z,1300.00
2023-05-09T00:42:34.321Z,1306.00
2023-05-09T00:43:34.374Z,1307.00
2023-05-09T00:44:34.429Z,1307.00
2023-05-09T00:45:34.467Z,1301.00
2023-05-09T00:46:34.571Z,1296.00
2023-05-09T00:47:34.581Z,1305.00
2023-05-09T00:48:34.534Z,1304.00
2023-05-09T00:49:34.614Z,1301.00
2023-05-09T00:50:34.643Z,1315.00
2023-05-09T00:51:34.704Z,1305.00
2023-05-09T00:52:34.780Z,1309.00
2023-05-09T00:53:34.855Z,1291.00
2023-05-09T00:54:34.811Z,1300.00
2023-05-09T00:55:34.867Z,1289.00
2023-05-09T00:56:34.928Z,1294.00
2023-05-09T00:57:34.971Z,1305.00
2023-05-09T00:58:35.014Z,1297.00
2023-05-09T00:59:35.082Z,1296.00
2023-05-09T01:00:35.105Z,1304.00
2023-05-09T01:01:35.175Z,1298.00
2023-05-09T01:02:35.242Z,1295.00
2023-05-09T01:03:35.554Z,1296.00
2023-05-09T01:04:35.303Z,1304.00
2023-05-09T01:05:35.323Z,1292.00
2023-05-09T01:06:35.408Z,1288.00
2023-05-09T01:07:35.440Z,1298.00
2023-05-09T01:08:35.502Z,1307.00
2023-05-09T01:09:35.600Z,1291.00
2023-05-09T01:10:35.594Z,1292.00
2023-05-09T01:11:35.577Z,1293.00
2023-05-09T01:12:35.658Z,1286.00
2023-05-09T01:13:35.673Z,1289.00
2023-05-09T01:14:35.704Z,1279.00
2023-05-09T01:15:35.798Z,1291.00
2023-05-09T01:16:35.780Z,1286.00
2023-05-09T01:17:35.895Z,1289.00
2023-05-09T01:18:36.008Z,1292.00
2023-05-09T01:19:35.934Z,1279.00
2023-05-09T01:20:36.019Z,1287.00
2023-05-09T01:21:36.033Z,1293.00
2023-05-09T01:22:36.128Z,1274.00
2023-05-09T01:23:36.157Z,1284.00
2023-05-09T01:24:36.173Z,1277.00
2023-05-09T01:25:36.314Z,1290.00
2023-05-09T01:26:36.270Z,1298.00
2023-05-09T01:27:36.310Z,1277.00
2023-05-09T01:28:36.381Z,1288.00
2023-05-09T01:29:36.388Z,1282.00
2023-05-09T01:30:36.508Z,1294.00
2023-05-09T01:31:36.563Z,1278.00
2023-05-09T01:32:36.667Z,1280.00
2023-05-09T01:33:36.617Z,1275.00
2023-05-09T01:34:36.650Z,1285.00
2023-05-09T01:35:36.697Z,1278.00
2023-05-09T01:36:36.786Z,1266.00
2023-05-09T01:37:36.787Z,1268.00
2023-05-09T01:38:36.875Z,1271.00
2023-05-09T01:39:36.892Z,1287.00
2023-05-09T01:40:36.978Z,1274.00
2023-05-09T01:41:37.081Z,1281.00
2023-05-09T01:42:37.046Z,1268.00
2023-05-09T01:43:37.164Z,1268.00
2023-05-09T01:44:37.165Z,1272.00
2023-05-09T01:45:37.226Z,1273.00
2023-05-09T01:46:37.271Z,1265.00
2023-05-09T01:47:37.337Z,1282.00
2023-05-09T01:48:37.330Z,1271.00
2023-05-09T01:49:37.419Z,1279.00
2023-05-09T01:50:37.445Z,1267.00
2023-05-09T01:51:37.526Z,1280.00
2023-05-09T01:52:37.587Z,1269.00
2023-05-09T01:53:37.617Z,1265.00
2023-05-09T01:54:37.688Z,1258.00
2023-05-09T01:55:37.697Z,1261.00
2023-05-09T01:56:37.735Z,1272.00
2023-05-09T01:57:37.893Z,1266.00
2023-05-09T01:58:37.872Z,1257.00
2023-05-09T01:59:37.923Z,1275.00
2023-05-09T02:00:37.986Z,1271.00
2023-05-09T02:01:37.995Z,1257.00
2023-05-09T02:02:38.173Z,1264.00
2023-05-09T02:03:38.098Z,1264.00
2023-05-09T02:04:38.168Z,1259.00
2023-05-09T02:05:38.247Z,1261.00
2023-05-09T02:06:38.245Z,1265.00
2023-05-09T02:07:38.290Z,1266.00
2023-05-09T02:08:38.369Z,1257.00
2023-05-09T02:09:38.397Z,1267.00
2023-05-09T02:10:38.429Z,1263.00
2023-05-09T02:11:38.514Z,1258.00
2023-05-09T02:12:38.576Z,1262.00
2023-05-09T02:13:38.679Z,1261.00
2023-05-09T02:14:38.749Z,1254.00
2023-05-09T02:15:38.739Z,1260.00
2023-05-09T02:16:38.789Z,1252.00
2023-05-09T02:17:38.857Z,1257.00
2023-05-09T02:18:38.916Z,1262.00
2023-05-09T02:19:38.972Z,1246.00
2023-05-09T02:20:38.981Z,1248.00
2023-05-09T02:21:39.083Z,1258.00
2023-05-09T02:22:39.104Z,1252.00
2023-05-09T02:23:39.175Z,1274.00
2023-05-09T02:24:39.189Z,1267.00
2023-05-09T02:25:39.263Z,1256.00
2023-05-09T02:26:39.336Z,1261.00
2023-05-09T02:27:39.407Z,1246.00
2023-05-09T02:28:39.411Z,1253.00
2023-05-09T02:29:39.543Z,1253.00
2023-05-09T02:30:39.549Z,1253.00
2023-05-09T02:31:39.603Z,1246.00
2023-05-09T02:32:39.721Z,1261.00
2023-05-09T02:33:39.706Z,1245.00
2023-05-09T02:34:39.758Z,1264.00
2023-05-09T02:35:39.857Z,1273.00
2023-05-09T02:36:39.851Z,1255.00
2023-05-09T02:37:39.934Z,1268.00
2023-05-09T02:38:39.958Z,1254.00
2023-05-09T02:39:40.006Z,1245.00
2023-05-09T02:40:40.080Z,1259.00
2023-05-09T02:41:40.118Z,1240.00
2023-05-09T02:42:40.168Z,1259.00
2023-05-09T02:43:40.265Z,1259.00
2023-05-09T02:44:40.290Z,1242.00
2023-05-09T02:45:40.468Z,1249.00
2023-05-09T02:46:40.393Z,1243.00
2023-05-09T02:47:40.522Z,1247.00
2023-05-09T02:48:40.514Z,1252.00
2023-05-09T02:49:40.522Z,1242.00
2023-05-09T02:50:40.584Z,1246.00
2023-05-09T02:51:40.621Z,1244.00
2023-05-09T02:52:40.700Z,1239.00
2023-05-09T02:53:40.742Z,1250.00
2023-05-09T02:54:40.820Z,1244.00
2023-05-09T02:55:40.869Z,1231.00
2023-05-09T02:56:40.929Z,1241.00
2023-05-09T02:57:40.996Z,1240.00
2023-05-09T02:58:41.042Z,1233.00
2023-05-09T02:59:41.091Z,1244.00
2023-05-09T03:00:41.157Z,1232.00
2023-05-09T03:01:41.291Z,1243.00
2023-05-09T03:02:41.354Z,1239.00
2023-05-09T03:03:41.404Z,1238.00
2023-05-09T03:04:41.380Z,1242.00
2023-05-09T03:05:41.408Z,1231.00
2023-05-09T03:06:41.481Z,1224.00
2023-05-09T03:07:41.573Z,1238.00
2023-05-09T03:08:41.591Z,1243.00
2023-05-09T03:09:41.633Z,1246.00
2023-05-09T03:10:41.739Z,1249.00
2023-05-09T03:11:41.797Z,1232.00
2023-05-09T03:12:41.824Z,1236.00
2023-05-09T03:13:41.871Z,1238.00
2023-05-09T03:14:41.953Z,1244.00
2023-05-09T03:15:42.004Z,1236.00
2023-05-09T03:16:42.048Z,1229.00
2023-05-09T03:17:42.208Z,1226.00
2023-05-09T03:18:42.623Z,1241.00
2023-05-09T03:19:42.214Z,1231.00
2023-05-09T03:20:42.268Z,1231.00
2023-05-09T03:21:42.310Z,1229.00
2023-05-09T03:22:42.427Z,1233.00
2023-05-09T03:23:42.426Z,1225.00
2023-05-09T03:24:42.509Z,1230.00
2023-05-09T03:25:42.562Z,1228.00
2023-05-09T03:26:42.611Z,1224.00
2023-05-09T03:27:42.656Z,1239.00
2023-05-09T03:28:42.740Z,1222.00
2023-05-09T03:29:42.809Z,1216.00
2023-05-09T03:30:42.836Z,1218.00
2023-05-09T03:31:42.947Z,1218.00
2023-05-09T03:32:43.006Z,1219.00
2023-05-09T03:33:43.137Z,1220.00
2023-05-09T03:34:43.082Z,1235.00
2023-05-09T03:35:43.139Z,1212.00
2023-05-09T03:36:43.216Z,1224.00
2023-05-09T03:37:43.300Z,1210.00
2023-05-09T03:38:43.382Z,1216.00
2023-05-09T03:39:43.434Z,1227.00
2023-05-09T03:40:43.470Z,1227.00
2023-05-09T03:41:43.535Z,1213.00
2023-05-09T03:42:43.602Z,1216.00
2023-05-09T03:43:43.722Z,1220.00
2023-05-09T03:44:43.707Z,1215.00
2023-05-09T03:45:43.740Z,1211.00
2023-05-09T03:46:43.808Z,1221.00
2023-05-09T03:47:43.869Z,1217.00
2023-05-09T03:48:44.017Z,1208.00
2023-05-09T03:49:44.060Z,1215.00
2023-05-09T03:50:43.999Z,1218.00
2023-05-09T03:51:44.077Z,1216.00
2023-05-09T03:52:44.125Z,1222.00
2023-05-09T03:53:44.197Z,1217.00
2023-05-09T03:54:44.261Z,1214.00
2023-05-09T03:55:44.318Z,1201.00
2023-05-09T03:56:44.351Z,1216.00
2023-05-09T03:57:44.451Z,1213.00
2023-05-09T03:58:44.479Z,1207.00
2023-05-09T03:59:44.544Z,1208.00
2023-05-09T04:00:44.650Z,1202.00
2023-05-09T04:01:44.726Z,1217.00
2023-05-09T04:02:44.775Z,1202.00
2023-05-09T04:03:44.870Z,1203.00
2023-05-09T04:04:44.824Z,1225.00
2023-05-09T04:05:45.009Z,1211.00
2023-05-09T04:06:44.948Z,1211.00
2023-05-09T04:07:45.001Z,1202.00
2023-05-09T04:08:45.049Z,1203.00
2023-05-09T04:09:45.129Z,1203.00
2023-05-09T04:10:45.163Z,1198.00
2023-05-09T04:11:45.300Z,1193.00
2023-05-09T04:12:45.285Z,1206.00
2023-05-09T04:13:45.351Z,1202.00
2023-05-09T04:14:47.395Z,1195.00
2023-05-09T04:15:45.421Z,1225.00
2023-05-09T04:16:45.530Z,1193.00
2023-05-09T04:17:45.456Z,1205.00
2023-05-09T04:18:45.391Z,1198.00
2023-05-09T04:19:45.384Z,1208.00
2023-05-09T04:20:45.394Z,1185.00
2023-05-09T04:21:45.458Z,1200.00
2023-05-09T04:22:46.917Z,1196.00
2023-05-09T04:23:45.330Z,1195.00
2023-05-09T04:24:45.328Z,1191.00
2023-05-09T04:25:45.324Z,1185.00
2023-05-09T04:26:45.304Z,1181.00
2023-05-09T04:27:45.345Z,1164.00
2023-05-09T04:28:45.353Z,1171.00
2023-05-09T04:29:45.361Z,1183.00
2023-05-09T04:30:45.325Z,1165.00
2023-05-09T04:31:45.490Z,1192.00
2023-05-09T04:32:45.355Z,1168.00
2023-05-09T04:33:45.282Z,1162.00
2023-05-09T04:34:45.340Z,1168.00
2023-05-09T04:35:45.374Z,1164.00
2023-05-09T04:36:45.457Z,1168.00
2023-05-09T04:37:45.587Z,1165.00
2023-05-09T04:38:45.569Z,1160.00
2023-05-09T04:39:45.608Z,1162.00
2023-05-09T04:40:45.688Z,1154.00
2023-05-09T04:41:45.934Z,1156.00
2023-05-09T04:42:45.805Z,1170.00
2023-05-09T04:43:45.837Z,1155.00
2023-05-09T04:44:45.878Z,1146.00
2023-05-09T04:45:45.983Z,1153.00
2023-05-09T04:46:46.182Z,1160.00
2023-05-09T04:47:46.133Z,1157.00
2023-05-09T04:48:46.153Z,1168.00
2023-05-09T04:49:46.206Z,1139.00
2023-05-09T04:50:46.271Z,1161.00
2023-05-09T04:51:46.351Z,1151.00
2023-05-09T04:52:46.354Z,1137.00
2023-05-09T04:53:46.515Z,1153.00
2023-05-09T04:54:46.500Z,1136.00
2023-05-09T04:55:46.557Z,1140.00
2023-05-09T04:56:47.435Z,1137.00
2023-05-09T04:57:46.687Z,1130.00
2023-05-09T04:58:46.735Z,1136.00
2023-05-09T04:59:46.836Z,1149.00
2023-05-09T05:00:46.907Z,1141.00
2023-05-09T05:01:47.012Z,1149.00
2023-05-09T05:02:47.047Z,1128.00
2023-05-09T05:03:47.106Z,1145.00
2023-05-09T05:04:47.189Z,1133.00
2023-05-09T05:05:47.242Z,1139.00
2023-05-09T05:06:47.242Z,1142.00
2023-05-09T05:07:47.336Z,1141.00
2023-05-09T05:08:47.369Z,1135.00
2023-05-09T05:09:47.511Z,1138.00
2023-05-09T05:10:47.516Z,1151.00
2023-05-09T05:11:57.840Z,1124.00
2023-05-09T05:12:48.607Z,1125.00
2023-05-09T05:13:47.543Z,1127.00
2023-05-09T05:14:47.556Z,1132.00
2023-05-09T05:15:47.565Z,1136.00
2023-05-09T05:16:47.526Z,1129.00
2023-05-09T05:17:47.571Z,1138.00
2023-05-09T05:18:47.636Z,1137.00
2023-05-09T05:19:47.500Z,1134.00
2023-05-09T05:20:47.495Z,1126.00
2023-05-09T05:21:47.512Z,1129.00
2023-05-09T05:22:47.556Z,1127.00
2023-05-09T05:23:47.618Z,1114.00
2023-05-09T05:24:47.679Z,1111.00
2023-05-09T05:25:47.766Z,1114.00
2023-05-09T05:26:47.766Z,1113.00
2023-05-09T05:27:47.814Z,1109.00
2023-05-09T05:28:47.868Z,1099.00
2023-05-09T05:29:47.914Z,1105.00
2023-05-09T05:30:48.024Z,1096.00
2023-05-09T05:31:48.144Z,1093.00
2023-05-09T05:32:48.127Z,1110.00
2023-05-09T05:33:48.150Z,1112.00
2023-05-09T05:34:48.194Z,1116.00
2023-05-09T05:35:48.221Z,1119.00
2023-05-09T05:36:48.267Z,1135.00
2023-05-09T05:37:49.174Z,1140.00
2023-05-09T05:38:48.394Z,1162.00
2023-05-09T05:39:48.448Z,1172.00
2023-05-09T05:40:48.452Z,1168.00
2023-05-09T05:41:48.593Z,1177.00
2023-05-09T05:42:48.788Z,1194.00
2023-05-09T05:43:48.686Z,1206.00
2023-05-09T05:44:48.677Z,1221.00
2023-05-09T05:45:48.753Z,1238.00
2023-05-09T05:46:48.660Z,1266.00
2023-05-09T05:47:48.746Z,1282.00
2023-05-09T05:48:48.715Z,1278.00
2023-05-09T05:49:48.772Z,1295.00
2023-05-09T05:50:48.783Z,1314.00
2023-05-09T05:51:48.830Z,1329.00
2023-05-09T05:52:48.805Z,1366.00
2023-05-09T05:53:48.739Z,1390.00
2023-05-09T05:54:48.758Z,1405.00
2023-05-09T05:55:48.801Z,1437.00
2023-05-09T05:56:48.819Z,1444.00
2023-05-09T05:57:48.877Z,1489.00
2023-05-09T05:58:48.792Z,1508.00
2023-05-09T05:59:48.879Z,1528.00
2023-05-09T06:00:48.854Z,1546.00
2023-05-09T06:01:49.024Z,1557.00
2023-05-09T06:02:49.063Z,1577.00
2023-05-09T06:03:49.176Z,1589.00
2023-05-09T06:04:49.125Z,1606.00
2023-05-09T06:05:49.178Z,1620.00
2023-05-09T06:06:49.254Z,1653.00
2023-05-09T06:07:49.286Z,1655.00
2023-05-09T06:08:49.370Z,1678.00
2023-05-09T06:09:49.389Z,1704.00
2023-05-09T06:10:49.458Z,1731.00
2023-05-09T06:11:49.493Z,1739.00
2023-05-09T06:12:49.580Z,1769.00
2023-05-09T06:13:49.683Z,1782.00
2023-05-09T06:14:49.641Z,1776.00
2023-05-09T06:15:49.669Z,1793.00
2023-05-09T06:16:49.788Z,1821.00
2023-05-09T06:17:49.780Z,1830.00
2023-05-09T06:18:49.809Z,1855.00
2023-05-09T06:19:49.791Z,1880.00
2023-05-09T06:20:49.875Z,1893.00
2023-05-09T06:21:49.861Z,1903.00
2023-05-09T06:22:49.857Z,1911.00
2023-05-09T06:24:04.207Z,1929.00
2023-05-09T06:24:50.895Z,1930.00
2023-05-09T06:25:49.892Z,1929.00
2023-05-09T06:26:49.905Z,1878.00
2023-05-09T06:27:49.903Z,1783.00
2023-05-09T06:28:49.862Z,1742.00
2023-05-09T06:29:49.927Z,1740.00
2023-05-09T06:30:49.832Z,1698.00
2023-05-09T06:31:49.861Z,1671.00
2023-05-09T06:32:49.853Z,1653.00
2023-05-09T06:33:49.875Z,1647.00
2023-05-09T06:34:49.921Z,1607.00
2023-05-09T06:35:49.963Z,1580.00
2023-05-09T06:36:50.140Z,1641.00
2023-05-09T06:37:49.985Z,1627.00
2023-05-09T06:38:50.021Z,1561.00
2023-05-09T06:39:50.046Z,1509.00
2023-05-09T06:40:50.082Z,1508.00
2023-05-09T06:41:50.041Z,1476.00
2023-05-09T06:42:50.059Z,1473.00
2023-05-09T06:43:50.144Z,1432.00
2023-05-09T06:44:50.095Z,1434.00
2023-05-09T06:45:50.158Z,1496.00
2023-05-09T06:46:50.066Z,1471.00
2023-05-09T06:47:50.071Z,1446.00
2023-05-09T06:48:50.046Z,1464.00
2023-05-09T06:49:50.049Z,1524.00
2023-05-09T06:50:50.101Z,1507.00
2023-05-09T06:51:50.166Z,1486.00
2023-05-09T06:52:50.222Z,1488.00
2023-05-09T06:53:50.341Z,1515.00
2023-05-09T06:54:50.364Z,1468.00
2023-05-09T06:55:50.350Z,1417.00
2023-05-09T06:56:50.322Z,1372.00
2023-05-09T06:57:50.453Z,1353.00
2023-05-09T06:58:50.423Z,1351.00
2023-05-09T06:59:50.774Z,1340.00
2023-05-09T07:00:50.480Z,1347.00
2023-05-09T07:01:50.618Z,1337.00
2023-05-09T07:02:50.681Z,1327.00
2023-05-09T07:03:50.841Z,1302.00
2023-05-09T07:04:50.695Z,1283.00
2023-05-09T07:05:50.624Z,1284.00
2023-05-09T07:06:50.685Z,1274.00
2023-05-09T07:07:50.736Z,1255.00
2023-05-09T07:08:50.721Z,1256.00
2023-05-09T07:09:55.270Z,1242.00
2023-05-09T07:10:51.832Z,1243.00
2023-05-09T07:11:50.799Z,1243.00
2023-05-09T07:12:50.799Z,1233.00
2023-05-09T07:13:50.805Z,1244.00
2023-05-09T07:14:50.817Z,1233.00
2023-05-09T07:15:50.777Z,1232.00
2023-05-09T07:16:50.884Z,1223.00
2023-05-09T07:17:50.928Z,1202.00
2023-05-09T07:18:50.925Z,1196.00
2023-05-09T07:19:50.937Z,1190.00
2023-05-09T07:20:51.008Z,1195.00
2023-05-09T07:21:51.049Z,1200.00
2023-05-09T07:22:51.123Z,1209.00
2023-05-09T07:23:51.096Z,1221.00
2023-05-09T07:24:51.154Z,1190.00
2023-05-09T07:25:51.161Z,1213.00
2023-05-09T07:26:51.233Z,1229.00
2023-05-09T07:27:51.308Z,1234.00
2023-05-09T07:28:51.398Z,1214.00
2023-05-09T07:29:51.517Z,1205.00
2023-05-09T07:30:51.588Z,1209.00
2023-05-09T07:31:51.555Z,1153.00
2023-05-09T07:32:51.675Z,1129.00
2023-05-09T07:33:51.687Z,1070.00
2023-05-09T07:34:51.591Z,1062.00
2023-05-09T07:35:51.602Z,1061.00
2023-05-09T07:36:51.631Z,1094.00
2023-05-09T07:37:51.656Z,1142.00
2023-05-09T07:38:51.622Z,1166.00
2023-05-09T07:39:51.997Z,1175.00
2023-05-09T07:40:51.696Z,1204.00
2023-05-09T07:41:51.694Z,1208.00
2023-05-09T07:42:51.702Z,1204.00
2023-05-09T07:43:51.792Z,1202.00
2023-05-09T07:44:51.703Z,1187.00
2023-05-09T07:45:51.823Z,1198.00
2023-05-09T07:46:51.820Z,1241.00
2023-05-09T07:47:51.952Z,1267.00
2023-05-09T07:48:51.885Z,1287.00
2023-05-09T07:49:52.147Z,1285.00
2023-05-09T07:50:52.025Z,1322.00
2023-05-09T07:51:52.054Z,1345.00
2023-05-09T07:52:52.105Z,1345.00
2023-05-09T07:53:52.189Z,1369.00
2023-05-09T07:54:52.178Z,1381.00
2023-05-09T07:55:52.137Z,1403.00
2023-05-09T07:56:52.159Z,1431.00
2023-05-09T07:57:52.207Z,1433.00
2023-05-09T07:58:54.263Z,1447.00
2023-05-09T07:59:52.213Z,1479.00
2023-05-09T08:00:52.250Z,1498.00
2023-05-09T08:01:52.304Z,1509.00
2023-05-09T08:02:52.320Z,1537.00
2023-05-09T08:03:52.279Z,1557.00
2023-05-09T08:04:52.456Z,1559.00
2023-05-09T08:05:52.277Z,1566.00
2023-05-09T08:06:52.161Z,1581.00
2023-05-09T08:07:52.192Z,1572.00
2023-05-09T08:08:52.118Z,1440.00
2023-05-09T08:09:52.104Z,1349.00
2023-05-09T08:10:52.158Z,1367.00
2023-05-09T08:11:52.109Z,1331.00
2023-05-09T08:12:52.241Z,1327.00
2023-05-09T08:13:52.185Z,1472.00
2023-05-09T08:14:52.102Z,1514.00
2023-05-09T08:15:52.233Z,1531.00
2023-05-09T08:16:52.109Z,1542.00
2023-05-09T08:17:52.194Z,1554.00
2023-05-09T08:18:52.158Z,1564.00
2023-05-09T08:19:52.075Z,1572.00
2023-05-09T08:20:52.059Z,1579.00
2023-05-09T08:21:52.101Z,1581.00
2023-05-09T08:22:52.081Z,1583.00
2023-05-09T08:23:52.066Z,1568.00
2023-05-09T08:24:52.032Z,1556.00
2023-05-09T08:25:52.189Z,1534.00
2023-05-09T08:26:52.315Z,1475.00
2023-05-09T08:27:53.045Z,1273.00
2023-05-09T08:28:53.878Z,1111.00
2023-05-09T08:29:52.104Z,1043.00
2023-05-09T08:30:52.195Z,999.00
2023-05-09T08:31:52.082Z,948.00
2023-05-09T08:32:52.072Z,904.00
2023-05-09T08:33:51.978Z,824.00
2023-05-09T08:34:52.009Z,806.00
2023-05-09T08:35:51.963Z,770.00
2023-05-09T08:36:51.924Z,710.00
2023-05-09T08:37:52.119Z,717.00
2023-05-09T08:38:52.391Z,712.00
2023-05-09T08:39:52.062Z,710.00
2023-05-09T08:40:51.906Z,719.00
2023-05-09T08:41:51.922Z,733.00
2023-05-09T08:42:52.046Z,782.00
2023-05-09T08:43:51.893Z,803.00
2023-05-09T08:44:51.907Z,853.00
2023-05-09T08:45:51.957Z,888.00
2023-05-09T08:46:51.893Z,924.00
2023-05-09T08:47:52.088Z,941.00
2023-05-09T08:48:52.022Z,952.00
2023-05-09T08:49:52.101Z,988.00
2023-05-09T08:50:52.119Z,1001.00
2023-05-09T08:51:52.166Z,1047.00
2023-05-09T08:52:52.170Z,1062.00
2023-05-09T08:53:52.241Z,1084.00
2023-05-09T08:54:52.200Z,1136.00
2023-05-09T08:55:52.263Z,1168.00
2023-05-09T08:56:52.228Z,1192.00
2023-05-09T08:57:52.171Z,1214.00
2023-05-09T08:58:52.130Z,1230.00
2023-05-09T08:59:52.297Z,1262.00
2023-05-09T09:00:52.287Z,1299.00
2023-05-09T09:01:52.389Z,1306.00
2023-05-09T09:02:52.356Z,1306.00
2023-05-09T09:03:52.465Z,1333.00
2023-05-09T09:04:52.625Z,1379.00
2023-05-09T09:05:52.688Z,1402.00
2023-05-09T09:06:52.660Z,1384.00
2023-05-09T09:07:53.309Z,1381.00
2023-05-09T09:08:52.785Z,1353.00
2023-05-09T09:09:52.871Z,1357.00
2023-05-09T09:10:52.796Z,1330.00
2023-05-09T09:11:52.834Z,1353.00
2023-05-09T09:12:52.954Z,1349.00
2023-05-09T09:13:52.980Z,1342.00
2023-05-09T09:14:53.056Z,1363.00
2023-05-09T09:15:53.101Z,1363.00
2023-05-09T09:16:53.298Z,1372.00
2023-05-09T09:17:53.314Z,1372.00
2023-05-09T09:18:53.251Z,1387.00
2023-05-09T09:19:53.300Z,1386.00
2023-05-09T09:20:53.340Z,1375.00
2023-05-09T09:21:53.402Z,1387.00
2023-05-09T09:22:53.411Z,1348.00
2023-05-09T09:23:53.442Z,1186.00
2023-05-09T09:24:53.487Z,1078.00
2023-05-09T09:25:53.693Z,1008.00
2023-05-09T09:26:53.532Z,864.00
2023-05-09T09:27:53.547Z,820.00
2023-05-09T09:28:53.531Z,812.00
2023-05-09T09:29:53.549Z,830.00
2023-05-09T09:30:53.567Z,925.00
2023-05-09T09:31:53.635Z,960.00
2023-05-09T09:32:54.415Z,1011.00
2023-05-09T09:33:53.593Z,1044.00
2023-05-09T09:34:53.901Z,1066.00
2023-05-09T09:35:53.580Z,1070.00
2023-05-09T09:36:53.618Z,1093.00
2023-05-09T09:37:53.752Z,1093.00
2023-05-09T09:38:53.726Z,1116.00
2023-05-09T09:39:53.826Z,1116.00
2023-05-09T09:40:53.858Z,1133.00
2023-05-09T09:41:54.100Z,1133.00
2023-05-09T09:42:53.942Z,1137.00
2023-05-09T09:43:54.166Z,1138.00
2023-05-09T09:44:54.082Z,1144.00
2023-05-09T09:45:54.294Z,1150.00
2023-05-09T09:46:54.233Z,1138.00
2023-05-09T09:47:54.314Z,1126.00
2023-05-09T09:48:54.299Z,1131.00
2023-05-09T09:49:54.342Z,1114.00
2023-05-09T09:50:54.546Z,1119.00
2023-05-09T09:51:54.531Z,1127.00
2023-05-09T09:52:54.561Z,1140.00
2023-05-09T09:53:54.690Z,1124.00
2023-05-09T09:54:54.760Z,1118.00
2023-05-09T09:55:55.045Z,1128.00
2023-05-09T09:56:54.960Z,1138.00
2023-05-09T09:57:54.898Z,1140.00
2023-05-09T09:58:54.888Z,1135.00
2023-05-09T09:59:55.011Z,1128.00
2023-05-09T10:00:54.989Z,1131.00
2023-05-09T10:01:55.045Z,1118.00
2023-05-09T10:02:55.094Z,1121.00
2023-05-09T10:03:55.171Z,1108.00
2023-05-09T10:04:55.199Z,1126.00
2023-05-09T10:05:55.282Z,1118.00
2023-05-09T10:06:55.412Z,1108.00
2023-05-09T10:07:55.383Z,1106.00
2023-05-09T10:08:55.452Z,1114.00
2023-05-09T10:09:55.558Z,1102.00
2023-05-09T10:10:55.591Z,1117.00
2023-05-09T10:11:55.621Z,1104.00
2023-05-09T10:12:55.722Z,1109.00
2023-05-09T10:13:55.813Z,1129.00
2023-05-09T10:14:55.797Z,1121.00
2023-05-09T10:15:55.919Z,1129.00
2023-05-09T10:16:56.034Z,1106.00
2023-05-09T10:17:56.070Z,1100.00
2023-05-09T10:18:56.142Z,1100.00
2023-05-09T10:19:56.169Z,1097.00
2023-05-09T10:20:56.085Z,1085.00
2023-05-09T10:21:56.183Z,1071.00
2023-05-09T10:22:56.207Z,1081.00
2023-05-09T10:23:56.377Z,1076.00
2023-05-09T10:24:57.673Z,1076.00
2023-05-09T10:25:56.405Z,1050.00
2023-05-09T10:26:56.466Z,1058.00
2023-05-09T10:27:56.522Z,1047.00
2023-05-09T10:28:56.618Z,1028.00
2023-05-09T10:29:56.766Z,1048.00
2023-05-09T10:30:56.883Z,1060.00
2023-05-09T10:31:56.738Z,1054.00
2023-05-09T10:32:57.344Z,1059.00
2023-05-09T10:33:56.973Z,1056.00
2023-05-09T10:34:57.057Z,1020.00
2023-05-09T10:35:57.011Z,1027.00
2023-05-09T10:36:57.040Z,1036.00
2023-05-09T10:37:57.086Z,1050.00
2023-05-09T10:38:57.267Z,1032.00
2023-05-09T10:39:57.219Z,1029.00
2023-05-09T10:40:57.327Z,1031.00
2023-05-09T10:41:57.595Z,1036.00
2023-05-09T10:42:57.932Z,1048.00
2023-05-09T10:43:57.531Z,1013.00
2023-05-09T10:44:57.514Z,1015.00
2023-05-09T10:45:57.818Z,1020.00
2023-05-09T10:46:57.641Z,1017.00
2023-05-09T10:47:57.871Z,1013.00
2023-05-09T10:48:57.845Z,1007.00
2023-05-09T10:49:57.927Z,991.00
2023-05-09T10:50:58.325Z,1010.00
2023-05-09T10:51:57.915Z,1005.00
2023-05-09T10:52:57.937Z,982.00
2023-05-09T10:53:57.978Z,981.00
2023-05-09T10:54:58.062Z,983.00
2023-05-09T10:55:58.141Z,988.00
2023-05-09T10:56:58.228Z,998.00
2023-05-09T10:57:58.238Z,975.00
2023-05-09T10:58:58.285Z,971.00
2023-05-09T10:59:58.339Z,990.00
2023-05-09T11:00:58.419Z,982.00
2023-05-09T11:01:58.573Z,977.00
2023-05-09T11:02:58.546Z,980.00
2023-05-09T11:03:58.802Z,976.00
2023-05-09T11:04:58.616Z,949.00
2023-05-09T11:05:58.718Z,968.00
2023-05-09T11:06:58.732Z,950.00
2023-05-09T11:07:58.825Z,954.00
2023-05-09T11:08:58.934Z,940.00
2023-05-09T11:09:58.996Z,974.00
2023-05-09T11:10:58.952Z,976.00
2023-05-09T11:11:59.061Z,950.00
2023-05-09T11:12:59.354Z,936.00
2023-05-09T11:13:59.272Z,951.00
2023-05-09T11:14:59.208Z,944.00
2023-05-09T11:15:59.551Z,928.00
2023-05-09T11:16:59.443Z,930.00
2023-05-09T11:17:59.550Z,933.00
2023-05-09T11:18:59.444Z,932.00
2023-05-09T11:19:59.497Z,949.00
2023-05-09T11:20:59.537Z,919.00
2023-05-09T11:22:01.310Z,912.00
2023-05-09T11:22:59.642Z,931.00
2023-05-09T11:23:59.786Z,949.00
2023-05-09T11:24:59.762Z,920.00
2023-05-09T11:25:59.803Z,915.00
2023-05-09T11:26:59.905Z,896.00
2023-05-09T11:28:01.052Z,876.00
2023-05-09T11:29:00.855Z,906.00
2023-05-09T11:30:00.150Z,902.00
2023-05-09T11:31:00.116Z,892.00
2023-05-09T11:32:00.242Z,886.00
2023-05-09T11:33:00.256Z,887.00
2023-05-09T11:34:00.341Z,890.00
2023-05-09T11:35:00.350Z,897.00
2023-05-09T11:36:00.450Z,894.00
2023-05-09T11:37:00.446Z,903.00
2023-05-09T11:38:00.573Z,903.00
2023-05-09T11:39:00.654Z,888.00
2023-05-09T11:40:00.632Z,915.00
2023-05-09T11:41:00.823Z,903.00
2023-05-09T11:42:00.838Z,906.00
2023-05-09T11:43:00.784Z,905.00
2023-05-09T11:44:00.850Z,900.00
2023-05-09T11:45:00.936Z,882.00
2023-05-09T11:46:00.954Z,869.00
2023-05-09T11:47:00.955Z,872.00
2023-05-09T11:48:01.308Z,875.00
2023-05-09T11:49:01.080Z,877.00
2023-05-09T11:50:01.244Z,853.00
2023-05-09T11:51:01.196Z,861.00
2023-05-09T11:52:01.401Z,856.00
2023-05-09T11:53:01.840Z,850.00
2023-05-09T11:54:01.416Z,842.00
2023-05-09T11:55:01.459Z,813.00
2023-05-09T11:56:01.518Z,814.00
2023-05-09T11:57:01.643Z,805.00
2023-05-09T11:58:01.642Z,809.00
2023-05-09T11:59:01.653Z,832.00
2023-05-09T12:00:01.673Z,795.00
2023-05-09T12:01:01.761Z,817.00
2023-05-09T12:02:01.801Z,816.00
2023-05-09T12:03:01.860Z,800.00
2023-05-09T12:04:01.974Z,798.00
2023-05-09T12:05:01.926Z,771.00
2023-05-09T12:06:02.158Z,782.00
2023-05-09T12:07:02.035Z,785.00
2023-05-09T12:08:02.130Z,777.00
2023-05-09T12:09:02.110Z,793.00